createdAt,value
2018-07-15T00:01:53.845Z,78.90
2018-07-15T00:04:22.510Z,79.31
2018-07-15T00:06:51.173Z,79.28
2018-07-15T00:09:19.637Z,79.42
2018-07-15T00:11:48.184Z,79.67
2018-07-15T00:14:16.665Z,80.04
2018-07-15T00:16:45.196Z,79.89
2018-07-15T00:19:13.672Z,79.87
2018-07-15T00:21:42.191Z,80.26
2018-07-15T00:24:10.693Z,79.83
2018-07-15T00:26:39.237Z,80.47
2018-07-15T00:29:07.861Z,80.44
2018-07-15T00:31:36.768Z,80.23
2018-07-15T00:34:05.281Z,80.64
2018-07-15T00:36:33.786Z,80.63
2018-07-15T00:39:02.302Z,80.89
2018-07-15T00:41:30.775Z,80.82
2018-07-15T00:43:59.309Z,80.81
2018-07-15T00:46:27.803Z,81.47
2018-07-15T00:48:56.318Z,81.17
2018-07-15T00:51:24.827Z,81.11
2018-07-15T00:53:53.361Z,81.46
2018-07-15T00:56:21.850Z,81.73
2018-07-15T00:58:50.942Z,81.60
2018-07-15T01:01:19.457Z,81.24
2018-07-15T01:03:47.982Z,81.22
2018-07-15T01:06:16.518Z,81.97
2018-07-15T01:08:44.982Z,82.11
2018-07-15T01:11:13.461Z,81.63
2018-07-15T01:13:42.013Z,82.12
2018-07-15T01:16:10.542Z,82.39
2018-07-15T01:18:39.040Z,82.36
2018-07-15T01:21:07.541Z,82.40
2018-07-15T01:23:36.037Z,82.54
2018-07-15T01:26:04.594Z,82.31
2018-07-15T01:28:33.067Z,83.12
2018-07-15T01:31:01.609Z,83.23
2018-07-15T01:33:30.085Z,83.47
2018-07-15T01:35:58.586Z,82.87
2018-07-15T01:38:27.452Z,83.38
2018-07-15T01:40:55.950Z,83.54
2018-07-15T01:43:24.470Z,83.56
2018-07-15T01:45:52.977Z,83.67
2018-07-15T01:48:21.493Z,83.60
2018-07-15T01:50:50.125Z,83.48
2018-07-15T01:53:18.578Z,83.75
2018-07-15T01:55:47.068Z,83.75
2018-07-15T01:58:15.568Z,83.67
2018-07-15T02:00:44.078Z,83.77
2018-07-15T02:03:12.652Z,84.32
2018-07-15T02:05:41.182Z,85.04
2018-07-15T02:08:09.713Z,84.70
2018-07-15T02:10:38.305Z,84.18
2018-07-15T02:13:06.879Z,84.77
2018-07-15T02:15:35.377Z,84.76
2018-07-15T02:18:03.880Z,84.99
2018-07-15T02:20:32.385Z,84.99
2018-07-15T02:23:00.861Z,85.19
2018-07-15T02:25:29.357Z,84.99
2018-07-15T02:27:57.880Z,84.93
2018-07-15T02:30:26.367Z,85.16
2018-07-15T02:32:55.045Z,85.18
2018-07-15T02:35:23.872Z,85.08
2018-07-15T02:37:52.391Z,85.07
2018-07-15T02:40:20.895Z,85.16
2018-07-15T02:42:50.386Z,84.95
2018-07-15T02:45:18.959Z,85.14
2018-07-15T02:47:47.482Z,85.39
2018-07-15T02:50:16.013Z,84.99
2018-07-15T02:52:44.516Z,84.97
2018-07-15T02:55:13.096Z,84.95
2018-07-15T02:57:41.578Z,85.05
2018-07-15T03:00:10.085Z,85.27
2018-07-15T03:02:38.569Z,85.26
2018-07-15T03:05:07.057Z,85.54
2018-07-15T03:07:36.042Z,85.23
2018-07-15T03:10:04.702Z,85.24
2018-07-15T03:12:33.176Z,85.12
2018-07-15T03:15:01.665Z,85.33
2018-07-15T03:17:30.172Z,86.21
2018-07-15T03:19:58.662Z,85.34
2018-07-15T03:22:27.146Z,85.75
2018-07-15T03:24:55.675Z,85.85
2018-07-15T03:27:24.177Z,85.79
2018-07-15T03:29:52.732Z,86.51
2018-07-15T03:32:21.258Z,86.77
2018-07-15T03:34:49.770Z,85.98
2018-07-15T03:37:18.247Z,86.10
2018-07-15T03:39:47.139Z,86.02
2018-07-15T03:42:15.601Z,86.09
2018-07-15T03:44:46.903Z,85.94
2018-07-15T03:47:15.570Z,86.44
2018-07-15T03:49:44.113Z,86.13
2018-07-15T03:52:12.643Z,85.86
2018-07-15T03:54:41.134Z,85.92
2018-07-15T03:57:09.630Z,86.42
2018-07-15T03:59:38.138Z,85.85
2018-07-15T04:02:06.690Z,86.00
2018-07-15T04:04:35.273Z,85.71
2018-07-15T04:07:03.790Z,86.02
2018-07-15T04:09:32.293Z,86.00
2018-07-15T04:12:00.841Z,85.73
2018-07-15T04:14:29.308Z,85.54
2018-07-15T04:16:57.752Z,84.97
2018-07-15T04:19:26.308Z,85.01
2018-07-15T04:21:54.856Z,84.94
2018-07-15T04:24:23.353Z,84.32
2018-07-15T04:26:51.862Z,83.52
2018-07-15T04:29:20.376Z,83.26
2018-07-15T04:31:49.210Z,83.16
2018-07-15T04:34:17.705Z,82.50
2018-07-15T04:36:46.181Z,81.97
2018-07-15T04:39:14.720Z,80.97
2018-07-15T04:41:43.261Z,80.04
2018-07-15T04:44:11.767Z,79.41
2018-07-15T04:46:40.237Z,80.07
2018-07-15T04:49:09.154Z,78.96
2018-07-15T04:51:37.797Z,79.07
2018-07-15T04:54:06.601Z,78.59
2018-07-15T04:56:35.125Z,79.13
2018-07-15T04:59:03.581Z,79.24
2018-07-15T05:01:32.054Z,79.24
2018-07-15T05:04:00.556Z,78.55
2018-07-15T05:06:29.097Z,76.29
2018-07-15T05:08:57.592Z,74.21
2018-07-15T05:11:26.233Z,67.58
2018-07-15T05:13:54.641Z,64.86
2018-07-15T05:16:23.134Z,61.70
2018-07-15T05:18:51.753Z,63.17
2018-07-15T05:21:20.239Z,65.42
2018-07-15T05:23:48.774Z,67.58
2018-07-15T05:26:17.253Z,62.16
2018-07-15T05:28:45.745Z,56.28
2018-07-15T05:31:14.285Z,60.78
2018-07-15T05:33:42.781Z,61.76
2018-07-15T05:36:11.333Z,65.17
2018-07-15T05:38:39.857Z,65.22
2018-07-15T05:41:08.617Z,64.67
2018-07-15T05:43:37.141Z,61.85
2018-07-15T05:46:06.084Z,60.93
2018-07-15T05:48:34.558Z,61.14
2018-07-15T05:51:03.031Z,62.29
2018-07-15T05:53:31.525Z,57.49
2018-07-15T05:55:59.984Z,61.10
2018-07-15T05:58:28.851Z,63.83
2018-07-15T06:00:57.342Z,57.25
2018-07-15T06:03:26.534Z,59.12
2018-07-15T06:05:55.555Z,63.28
2018-07-15T06:08:26.293Z,54.57
2018-07-15T06:10:54.837Z,60.01
2018-07-15T06:13:23.328Z,59.51
2018-07-15T06:15:51.824Z,61.63
2018-07-15T06:18:20.371Z,58.47
2018-07-15T06:20:48.865Z,56.88
2018-07-15T06:23:17.381Z,60.24
2018-07-15T06:25:45.859Z,57.33
2018-07-15T06:28:14.744Z,60.83
2018-07-15T06:30:43.244Z,54.57
2018-07-15T06:33:11.723Z,56.46
2018-07-15T06:35:40.259Z,59.02
2018-07-15T06:38:09.342Z,57.30
2018-07-15T06:40:41.333Z,53.37
2018-07-15T06:43:09.852Z,56.42
2018-07-15T06:45:38.325Z,59.51
2018-07-15T06:48:07.038Z,62.01
2018-07-15T06:50:36.083Z,58.23
2018-07-15T06:53:04.596Z,55.68
2018-07-15T06:55:33.202Z,56.60
2018-07-15T06:58:01.810Z,55.94
2018-07-15T07:00:30.412Z,59.82
2018-07-15T07:02:58.979Z,58.76
2018-07-15T07:05:27.534Z,51.80
2018-07-15T07:07:56.116Z,52.79
2018-07-15T07:10:24.650Z,51.09
2018-07-15T07:12:53.165Z,54.01
2018-07-15T07:15:21.859Z,51.17
2018-07-15T07:17:50.340Z,57.39
2018-07-15T07:20:18.825Z,58.13
2018-07-15T07:22:47.309Z,62.57
2018-07-15T07:25:15.808Z,60.05
2018-07-15T07:27:44.344Z,59.83
2018-07-15T07:30:13.744Z,60.79
2018-07-15T07:32:42.236Z,61.16
2018-07-15T07:35:10.710Z,62.18
2018-07-15T07:37:39.205Z,61.81
2018-07-15T07:40:07.693Z,62.28
2018-07-15T07:42:36.222Z,61.26
2018-07-15T07:45:04.807Z,60.79
2018-07-15T07:47:33.318Z,61.25
2018-07-15T07:50:01.792Z,60.12
2018-07-15T07:52:30.321Z,59.46
2018-07-15T07:54:58.800Z,61.55
2018-07-15T07:57:27.272Z,59.67
2018-07-15T07:59:55.754Z,60.68
2018-07-15T08:02:24.657Z,59.67
2018-07-15T08:04:53.191Z,58.28
2018-07-15T08:07:21.669Z,58.49
2018-07-15T08:09:50.144Z,58.80
2018-07-15T08:12:18.684Z,58.79
2018-07-15T08:14:47.577Z,56.79
2018-07-15T08:17:16.045Z,58.47
2018-07-15T08:19:44.535Z,57.13
2018-07-15T08:22:13.046Z,57.02
2018-07-15T08:24:41.580Z,57.52
2018-07-15T08:27:10.068Z,56.17
2018-07-15T08:29:47.829Z,53.37
2018-07-15T08:32:16.331Z,54.53
2018-07-15T08:34:44.841Z,54.54
2018-07-15T08:37:13.725Z,53.24
2018-07-15T08:39:42.169Z,53.95
2018-07-15T08:42:10.657Z,52.67
2018-07-15T08:44:39.269Z,51.78
2018-07-15T08:47:07.816Z,51.64
2018-07-15T08:49:36.701Z,51.09
2018-07-15T08:52:05.208Z,50.81
2018-07-15T08:54:33.750Z,50.40
2018-07-15T08:57:02.239Z,50.30
2018-07-15T08:59:30.768Z,50.42
2018-07-15T09:01:59.236Z,49.74
2018-07-15T09:04:29.675Z,48.63
2018-07-15T09:06:58.642Z,49.20
2018-07-15T09:09:27.169Z,49.44
2018-07-15T09:11:55.641Z,49.97
2018-07-15T09:14:24.169Z,48.78
2018-07-15T09:16:53.086Z,47.79
2018-07-15T09:19:21.692Z,48.74
2018-07-15T09:21:50.204Z,49.52
2018-07-15T09:24:19.028Z,48.33
2018-07-15T09:26:47.526Z,45.52
2018-07-15T09:29:15.995Z,46.74
2018-07-15T09:31:44.480Z,46.34
2018-07-15T09:34:13.309Z,44.21
2018-07-15T09:36:42.245Z,44.81
2018-07-15T09:39:11.331Z,43.39
2018-07-15T09:41:40.255Z,44.03
2018-07-15T09:44:09.428Z,45.22
2018-07-15T09:46:37.957Z,45.17
2018-07-15T09:49:06.681Z,44.20
2018-07-15T09:51:35.154Z,43.03
2018-07-15T09:54:03.639Z,44.14
2018-07-15T09:56:32.162Z,43.51
2018-07-15T09:59:01.011Z,44.00
2018-07-15T10:01:29.532Z,43.96
2018-07-15T10:03:58.086Z,43.58
2018-07-15T10:06:26.657Z,43.01
2018-07-15T10:08:55.153Z,42.91
2018-07-15T10:11:23.888Z,42.86
2018-07-15T10:13:52.405Z,43.05
2018-07-15T10:16:20.897Z,43.52
2018-07-15T10:18:49.751Z,43.10
2018-07-15T10:21:18.427Z,43.01
2018-07-15T10:23:48.317Z,41.47
2018-07-15T10:26:16.958Z,41.72
2018-07-15T10:28:45.437Z,40.41
2018-07-15T10:31:13.942Z,41.68
2018-07-15T10:33:42.495Z,39.98
2018-07-15T10:36:11.230Z,41.25
2018-07-15T10:38:40.045Z,40.25
2018-07-15T10:41:08.549Z,40.18
2018-07-15T10:43:37.265Z,40.27
2018-07-15T10:46:05.901Z,39.12
2018-07-15T10:48:34.384Z,39.55
2018-07-15T10:51:02.886Z,38.26
2018-07-15T10:53:31.372Z,38.57
2018-07-15T10:55:59.843Z,38.45
2018-07-15T10:58:28.363Z,37.64
2018-07-15T11:00:56.879Z,36.98
2018-07-15T11:03:25.387Z,37.56
2018-07-15T11:05:53.920Z,38.01
2018-07-15T11:08:22.405Z,37.54
2018-07-15T11:10:50.990Z,38.25
2018-07-15T11:13:19.482Z,38.32
2018-07-15T11:15:48.292Z,39.53
2018-07-15T11:18:16.812Z,40.16
2018-07-15T11:20:45.761Z,38.93
2018-07-15T11:23:14.305Z,39.97
2018-07-15T11:25:43.001Z,38.46
2018-07-15T11:28:11.513Z,38.92
2018-07-15T11:30:40.105Z,37.41
2018-07-15T11:33:08.642Z,37.97
2018-07-15T11:35:37.173Z,38.19
2018-07-15T11:38:05.717Z,38.50
2018-07-15T11:40:34.225Z,37.96
2018-07-15T11:43:02.697Z,37.54
2018-07-15T11:45:31.525Z,37.45
2018-07-15T11:48:00.019Z,38.77
2018-07-15T11:50:28.543Z,37.14
2018-07-15T11:52:57.392Z,36.89
2018-07-15T11:55:26.350Z,36.86
2018-07-15T11:57:54.814Z,37.06
2018-07-15T12:00:23.293Z,36.97
2018-07-15T12:02:52.134Z,37.61
2018-07-15T12:05:20.637Z,37.26
2018-07-15T12:07:49.138Z,36.95
2018-07-15T12:10:18.025Z,37.52
2018-07-15T12:12:46.497Z,38.52
2018-07-15T12:15:15.023Z,36.59
2018-07-15T12:17:43.532Z,35.91
2018-07-15T12:20:12.025Z,36.19
2018-07-15T12:22:40.539Z,36.12
2018-07-15T12:25:09.069Z,36.56
2018-07-15T12:27:37.551Z,37.05
2018-07-15T12:30:06.488Z,36.28
2018-07-15T12:32:35.006Z,37.07
2018-07-15T12:35:03.485Z,36.87
2018-07-15T12:37:32.393Z,37.06
2018-07-15T12:40:00.852Z,37.46
2018-07-15T12:42:29.376Z,39.21
2018-07-15T12:44:57.937Z,36.98
2018-07-15T12:47:26.431Z,37.06
2018-07-15T12:49:54.941Z,36.43
2018-07-15T12:52:23.526Z,35.81
2018-07-15T12:54:52.064Z,36.62
2018-07-15T12:57:20.634Z,34.97
2018-07-15T12:59:49.206Z,34.96
2018-07-15T13:02:17.729Z,34.98
2018-07-15T13:04:46.303Z,34.83
2018-07-15T13:07:14.889Z,35.13
2018-07-15T13:09:43.385Z,34.89
2018-07-15T13:12:12.000Z,34.92
2018-07-15T13:14:40.545Z,34.72
2018-07-15T13:17:09.049Z,35.15
2018-07-15T13:19:38.049Z,34.61
2018-07-15T13:22:06.882Z,32.46
2018-07-15T13:24:35.412Z,32.53
2018-07-15T13:27:04.023Z,32.96
2018-07-15T13:29:32.597Z,33.43
2018-07-15T13:32:01.514Z,33.91
2018-07-15T13:34:30.072Z,34.31
2018-07-15T13:36:58.583Z,33.83
2018-07-15T13:39:27.075Z,33.95
2018-07-15T13:41:56.625Z,34.05
2018-07-15T13:44:25.086Z,32.93
2018-07-15T13:46:53.661Z,32.63
2018-07-15T13:49:22.185Z,31.84
2018-07-15T13:51:50.670Z,32.45
2018-07-15T13:54:20.287Z,31.29
2018-07-15T13:56:48.791Z,31.69
2018-07-15T13:59:17.306Z,32.10
2018-07-15T14:01:45.805Z,32.68
2018-07-15T14:04:14.484Z,32.58
2018-07-15T14:06:42.951Z,32.41
2018-07-15T14:09:11.444Z,32.80
2018-07-15T14:11:40.081Z,32.30
2018-07-15T14:14:08.598Z,31.89
2018-07-15T14:16:37.090Z,33.03
2018-07-15T14:19:05.603Z,32.12
2018-07-15T14:21:34.119Z,32.43
2018-07-15T14:24:02.634Z,32.46
2018-07-15T14:26:31.157Z,32.36
2018-07-15T14:28:59.709Z,33.55
2018-07-15T14:31:28.330Z,31.99
2018-07-15T14:33:56.840Z,32.49
2018-07-15T14:36:25.392Z,32.99
2018-07-15T14:38:53.902Z,34.60
2018-07-15T14:41:22.397Z,33.41
2018-07-15T14:43:51.329Z,32.89
2018-07-15T14:46:19.829Z,31.92
2018-07-15T14:48:48.309Z,31.90
2018-07-15T14:51:17.305Z,32.41
2018-07-15T14:53:45.785Z,32.85
2018-07-15T14:56:14.309Z,32.71
2018-07-15T14:58:42.812Z,32.91
2018-07-15T15:01:11.306Z,33.19
2018-07-15T15:03:39.845Z,33.33
2018-07-15T15:06:08.541Z,33.25
2018-07-15T15:08:37.087Z,33.19
2018-07-15T15:11:05.765Z,33.30
2018-07-15T15:13:34.253Z,33.22
2018-07-15T15:16:03.141Z,33.69
2018-07-15T15:18:31.646Z,33.44
2018-07-15T15:21:00.148Z,33.27
2018-07-15T15:23:28.665Z,33.60
2018-07-15T15:25:57.165Z,32.79
2018-07-15T15:28:25.656Z,33.08
2018-07-15T15:30:54.173Z,32.60
2018-07-15T15:33:22.785Z,32.77
2018-07-15T15:35:51.293Z,32.87
2018-07-15T15:38:19.853Z,32.85
2018-07-15T15:40:48.408Z,32.77
2018-07-15T15:43:16.908Z,33.19
2018-07-15T15:45:45.422Z,32.66
2018-07-15T15:48:13.970Z,31.97
2018-07-15T15:50:42.522Z,32.01
2018-07-15T15:53:11.026Z,31.51
2018-07-15T15:55:39.534Z,31.37
2018-07-15T15:58:08.137Z,32.27
2018-07-15T16:00:36.694Z,32.91
2018-07-15T16:03:05.897Z,31.84
2018-07-15T16:05:34.453Z,32.10
2018-07-15T16:08:02.998Z,32.01
2018-07-15T16:10:31.497Z,32.18
2018-07-15T16:13:00.034Z,32.75
2018-07-15T16:15:28.519Z,32.85
2018-07-15T16:17:56.992Z,31.99
2018-07-15T16:20:25.533Z,32.95
2018-07-15T16:22:54.063Z,32.29
2018-07-15T16:25:22.620Z,32.08
2018-07-15T16:27:51.138Z,32.15
2018-07-15T16:30:19.684Z,32.00
2018-07-15T16:32:48.309Z,32.42
2018-07-15T16:35:16.827Z,32.32
2018-07-15T16:37:45.290Z,32.04
2018-07-15T16:40:13.872Z,32.16
2018-07-15T16:42:42.404Z,32.50
2018-07-15T16:45:11.014Z,32.75
2018-07-15T16:47:39.493Z,32.71
2018-07-15T16:50:08.026Z,32.99
2018-07-15T16:52:36.526Z,32.96
2018-07-15T16:55:05.078Z,32.86
2018-07-15T16:57:33.566Z,32.64
2018-07-15T17:00:02.096Z,33.01
2018-07-15T17:02:30.998Z,33.68
2018-07-15T17:04:59.487Z,33.46
2018-07-15T17:07:28.002Z,33.07
2018-07-15T17:09:56.545Z,33.32
2018-07-15T17:12:25.097Z,33.17
2018-07-15T17:14:53.589Z,33.61
2018-07-15T17:17:22.114Z,33.82
2018-07-15T17:19:50.667Z,33.89
2018-07-15T17:22:19.241Z,33.96
2018-07-15T17:24:47.838Z,33.10
2018-07-15T17:27:16.773Z,33.19
2018-07-15T17:29:45.269Z,33.50
2018-07-15T17:32:13.806Z,33.55
2018-07-15T17:34:42.321Z,33.96
2018-07-15T17:37:10.868Z,33.66
2018-07-15T17:39:39.430Z,33.90
2018-07-15T17:42:07.953Z,34.06
2018-07-15T17:44:36.421Z,33.72
2018-07-15T17:47:04.967Z,34.13
2018-07-15T17:49:33.509Z,33.98
2018-07-15T17:52:01.989Z,34.52
2018-07-15T17:54:30.530Z,34.50
2018-07-15T17:56:59.040Z,35.01
2018-07-15T17:59:27.920Z,34.28
2018-07-15T18:01:56.441Z,33.69
2018-07-15T18:04:25.095Z,32.83
2018-07-15T18:06:53.705Z,33.37
2018-07-15T18:09:22.230Z,32.91
2018-07-15T18:11:51.119Z,32.77
2018-07-15T18:14:19.597Z,31.93
2018-07-15T18:16:48.146Z,32.81
2018-07-15T18:19:16.710Z,31.23
2018-07-15T18:21:45.188Z,32.32
2018-07-15T18:24:13.754Z,32.60
2018-07-15T18:26:42.234Z,33.90
2018-07-15T18:29:10.766Z,35.09
2018-07-15T18:31:39.231Z,34.91
2018-07-15T18:34:07.794Z,35.62
2018-07-15T18:36:36.272Z,35.62
2018-07-15T18:39:05.550Z,35.96
2018-07-15T18:41:34.021Z,36.12
2018-07-15T18:44:02.572Z,35.30
2018-07-15T18:46:31.066Z,35.89
2018-07-15T18:48:59.600Z,36.44
2018-07-15T18:51:28.088Z,36.72
2018-07-15T18:53:56.576Z,36.74
2018-07-15T18:56:25.123Z,36.69
2018-07-15T18:58:53.709Z,37.36
2018-07-15T19:01:22.413Z,37.43
2018-07-15T19:03:51.046Z,37.69
2018-07-15T19:06:19.754Z,37.44
2018-07-15T19:08:48.297Z,37.91
2018-07-15T19:11:16.877Z,38.58
2018-07-15T19:13:45.405Z,38.48
2018-07-15T19:16:13.967Z,38.80
2018-07-15T19:18:42.470Z,38.63
2018-07-15T19:21:11.012Z,38.77
2018-07-15T19:23:39.718Z,39.54
2018-07-15T19:26:08.485Z,39.44
2018-07-15T19:28:37.041Z,39.93
2018-07-15T19:31:05.889Z,40.15
2018-07-15T19:33:34.483Z,40.30
2018-07-15T19:36:02.997Z,40.88
2018-07-15T19:38:31.801Z,40.59
2018-07-15T19:41:00.445Z,40.63
2018-07-15T19:43:29.171Z,40.68
2018-07-15T19:45:57.791Z,41.24
2018-07-15T19:48:26.332Z,41.49
2018-07-15T19:50:54.833Z,41.57
2018-07-15T19:53:23.348Z,42.25
2018-07-15T19:55:52.305Z,42.06
2018-07-15T19:58:20.874Z,42.38
2018-07-15T20:00:49.390Z,42.92
2018-07-15T20:03:17.920Z,42.82
2018-07-15T20:05:46.399Z,43.00
2018-07-15T20:08:14.872Z,43.20
2018-07-15T20:10:43.441Z,43.84
2018-07-15T20:13:12.463Z,44.70
2018-07-15T20:15:40.906Z,44.56
2018-07-15T20:18:09.724Z,44.16
2018-07-15T20:20:38.245Z,44.59
2018-07-15T20:23:06.718Z,44.00
2018-07-15T20:25:35.288Z,44.59
2018-07-15T20:28:03.758Z,44.54
2018-07-15T20:30:32.277Z,45.57
2018-07-15T20:33:00.735Z,45.26
2018-07-15T20:35:29.270Z,45.42
2018-07-15T20:37:57.817Z,46.02
2018-07-15T20:40:26.309Z,46.72
2018-07-15T20:42:55.018Z,46.18
2018-07-15T20:45:23.530Z,46.24
2018-07-15T20:47:52.014Z,46.44
2018-07-15T20:50:20.575Z,46.84
2018-07-15T20:52:49.018Z,47.19
2018-07-15T20:55:17.542Z,47.55
2018-07-15T20:57:46.038Z,47.22
2018-07-15T21:00:14.531Z,47.68
2018-07-15T21:02:43.180Z,47.41
2018-07-15T21:05:11.567Z,48.03
2018-07-15T21:07:40.179Z,47.97
2018-07-15T21:10:08.738Z,48.25
2018-07-15T21:12:37.209Z,47.92
2018-07-15T21:15:05.713Z,48.77
2018-07-15T21:17:34.267Z,48.51
2018-07-15T21:20:02.753Z,48.80
2018-07-15T21:22:31.274Z,48.94
2018-07-15T21:24:59.764Z,49.35
2018-07-15T21:27:28.540Z,50.40
2018-07-15T21:29:57.480Z,50.61
2018-07-15T21:32:25.965Z,50.47
2018-07-15T21:34:54.840Z,49.56
2018-07-15T21:37:23.562Z,49.96
2018-07-15T21:39:52.048Z,50.47
2018-07-15T21:42:20.613Z,50.70
2018-07-15T21:44:49.214Z,50.09
2018-07-15T21:47:17.648Z,50.89
2018-07-15T21:49:46.108Z,50.93
2018-07-15T21:52:14.592Z,51.49
2018-07-15T21:54:43.463Z,51.30
2018-07-15T21:57:11.967Z,51.45
2018-07-15T21:59:40.444Z,51.81
2018-07-15T22:02:09.074Z,51.68
2018-07-15T22:04:37.593Z,51.59
2018-07-15T22:07:17.253Z,51.69
2018-07-15T22:09:58.651Z,51.69
2018-07-15T22:12:27.594Z,52.19
2018-07-15T22:14:56.150Z,52.26
2018-07-15T22:17:24.632Z,52.09
2018-07-15T22:19:53.147Z,52.76
2018-07-15T22:22:21.629Z,52.68
2018-07-15T22:24:50.501Z,53.12
2018-07-15T22:27:18.985Z,53.59
2018-07-15T22:29:47.490Z,53.41
2018-07-15T22:32:15.982Z,53.36
2018-07-15T22:34:44.478Z,53.69
2018-07-15T22:37:12.962Z,53.92
2018-07-15T22:39:41.485Z,54.50
2018-07-15T22:42:10.130Z,54.77
2018-07-15T22:44:38.712Z,55.48
2018-07-15T22:47:07.223Z,55.83
2018-07-15T22:49:35.705Z,55.91
2018-07-15T22:52:04.209Z,56.69
2018-07-15T22:54:32.688Z,57.13
2018-07-15T22:57:01.230Z,57.72
2018-07-15T22:59:29.744Z,57.92
2018-07-15T23:01:58.245Z,58.02
2018-07-15T23:04:41.063Z,58.25
2018-07-15T23:07:09.795Z,58.42
2018-07-15T23:09:38.427Z,58.83
2018-07-15T23:12:07.314Z,59.10
2018-07-15T23:14:35.828Z,59.36
2018-07-15T23:17:04.363Z,59.48
2018-07-15T23:19:32.858Z,60.32
2018-07-15T23:22:01.359Z,60.15
2018-07-15T23:24:29.825Z,60.56
2018-07-15T23:26:58.742Z,61.05
2018-07-15T23:29:27.236Z,61.42
2018-07-15T23:31:55.725Z,62.11
2018-07-15T23:34:24.213Z,62.03
2018-07-15T23:36:52.685Z,62.35
2018-07-15T23:39:21.318Z,62.42
2018-07-15T23:41:49.837Z,62.71
2018-07-15T23:44:18.296Z,63.49
2018-07-15T23:46:46.800Z,63.17
2018-07-15T23:49:15.332Z,64.02
2018-07-15T23:51:43.821Z,64.06
2018-07-15T23:54:12.345Z,64.55
2018-07-15T23:56:40.885Z,64.10
2018-07-15T23:59:09.408Z,64.91
